Alexander, North Dakota
Current Conditions -  °F | °C
As of 1:15 PM on Saturday 20 Dec 2014 (Local Time) from KS25 Reporting Station
Clear Clear  
Wind Chill: 31°   Ceiling: Unl
Heat Index: 39°   Visibility: 10mi
Dew Point: 32°   Wind: 14mph
Humidity: 75%   Direction: 230°SW
Pressure: 29.78"   Gusts: NA
Location:  47.84°N, 103.64°W
Report Text: KS25 201915Z AUTO 23012KT 10SM CLR 04/00 A2978 RMK AO2
Loading
Personal Weather Stations






























Interactive Weather Map New forecast layout! Learn more

10-Day Weather Forecast

Advertisements
Track Severe Weather on mobile